Time;durP1;ratioP1;P1;durP2;ratioP2;P2;SDS_P1;SDS_P2;PMS_P1;PMS_P2;Temp;Humidity;BMP_temperature;BMP_pressure;BME280_temperature;BME280_humidity;BME280_pressure;Samples;Min_cycle;Max_cycle;Signal;HPM_P1;HPM_P2
2022/09/08 00:01:26;;;;;;;4.40;3.55;;;;;;;24.51;50.03;101058.63;5002214;28;20041;-73
2022/09/08 00:03:52;;;;;;;5.05;3.75;;;;;;;24.55;50.01;101067.00;4980019;28;20042;-73
2022/09/08 00:06:18;;;;;;;4.82;3.58;;;;;;;24.53;49.95;101048.56;5003037;28;20456;-73
2022/09/08 00:08:46;;;;;;;7.47;3.80;;;;;;;24.52;50.15;101057.59;5001316;28;20103;-73
2022/09/08 00:11:15;;;;;;;4.93;3.42;;;;;;;24.47;49.95;101038.75;5004078;28;20057;-73
2022/09/08 00:13:43;;;;;;;7.35;3.70;;;;;;;24.43;49.96;101031.41;5001455;28;20044;-73
2022/09/08 00:16:10;;;;;;;4.97;3.45;;;;;;;24.50;50.01;101050.84;5004172;28;20042;-73
2022/09/08 00:18:37;;;;;;;7.90;3.50;;;;;;;24.53;50.13;101053.09;5000370;28;20042;-73
2022/09/08 00:21:03;;;;;;;6.72;3.78;;;;;;;24.53;50.00;101050.41;5000841;28;20050;-73
2022/09/08 00:23:29;;;;;;;5.45;3.95;;;;;;;24.52;50.09;101046.13;4998899;28;20103;-75
2022/09/08 00:25:54;;;;;;;5.65;3.67;;;;;;;24.52;49.94;101049.59;4998857;28;20508;-73
2022/09/08 00:28:20;;;;;;;6.63;3.63;;;;;;;24.46;49.85;101039.78;4998578;28;20456;-74
2022/09/08 00:30:45;;;;;;;5.30;4.00;;;;;;;24.48;50.42;101035.06;5001671;28;20046;-75
2022/09/08 00:33:11;;;;;;;4.90;3.75;;;;;;;24.50;50.10;101033.03;4983364;28;20111;-74
2022/09/08 00:35:41;;;;;;;4.82;3.67;;;;;;;24.36;49.79;101004.75;4981180;28;20116;-74
2022/09/08 00:38:07;;;;;;;4.45;3.70;;;;;;;24.50;50.13;101026.88;5003864;28;20037;-76
2022/09/08 00:40:46;;;;;;;6.22;4.25;;;;;;;24.50;50.10;101027.69;4987826;28;20057;-73
2022/09/08 00:43:30;;;;;;;5.93;4.03;;;;;;;24.50;50.16;101025.03;4987544;28;20042;-77
2022/09/08 00:45:59;;;;;;;5.35;3.80;;;;;;;24.49;50.02;101015.41;5004744;28;20038;-73
2022/09/08 00:48:25;;;;;;;6.20;4.30;;;;;;;24.38;49.83;101000.88;5002586;28;20049;-74
2022/09/08 00:50:51;;;;;;;6.63;3.83;;;;;;;24.49;50.20;101012.75;4982764;28;20046;-75
2022/09/08 00:53:19;;;;;;;5.15;3.75;;;;;;;24.48;50.17;101005.78;4999417;28;20045;-73
2022/09/08 00:55:45;;;;;;;5.57;4.15;;;;;;;24.48;49.99;101004.97;4999292;28;20650;-73
2022/09/08 00:58:12;;;;;;;5.38;3.97;;;;;;;24.43;50.27;101002.13;5002829;28;20053;-73
2022/09/08 01:00:41;;;;;;;7.78;4.57;;;;;;;24.38;50.31;100986.75;5003184;28;20046;-74
2022/09/08 01:03:15;;;;;;;5.32;4.30;;;;;;;24.46;49.96;100993.72;4998462;28;20435;-74
2022/09/08 01:06:01;;;;;;;6.30;4.20;;;;;;;24.47;50.09;100990.84;4999016;28;20492;-73
2022/09/08 01:14:43;;;;;;;5.70;4.43;;;;;;;24.46;50.04;100991.06;5000776;28;20089;-74
2022/09/08 01:17:26;;;;;;;6.60;4.25;;;;;;;24.41;50.03;100989.00;4998501;28;20373;-74
2022/09/08 01:19:52;;;;;;;7.60;4.65;;;;;;;24.46;50.28;100996.38;4994305;28;20064;-76
2022/09/08 01:22:36;;;;;;;6.43;4.30;;;;;;;24.45;50.00;100987.56;4999146;28;20048;-74
2022/09/08 01:25:05;;;;;;;7.68;4.15;;;;;;;24.44;50.16;100979.81;5006552;28;20054;-76
2022/09/08 01:27:31;;;;;;;9.40;4.65;;;;;;;24.43;49.98;100968.34;4996935;28;20045;-76
2022/09/08 01:30:01;;;;;;;5.55;3.72;;;;;;;24.38;50.13;100963.59;4997913;28;20042;-73
2022/09/08 01:32:33;;;;;;;6.95;5.00;;;;;;;24.44;49.95;100971.81;4992413;28;20057;-74
2022/09/08 01:34:59;;;;;;;5.57;4.30;;;;;;;24.43;50.16;100962.19;5004021;28;20037;-73
2022/09/08 01:37:24;;;;;;;5.38;4.28;;;;;;;24.38;49.94;100958.28;4997934;28;20077;-74
2022/09/08 01:39:51;;;;;;;5.05;4.47;;;;;;;24.43;50.03;100951.53;5002507;28;20030;-73
2022/09/08 01:42:16;;;;;;;5.25;4.07;;;;;;;24.43;50.13;100951.53;4999555;28;20038;-75
2022/09/08 01:44:43;;;;;;;7.35;4.85;;;;;;;24.42;49.98;100950.72;5000234;28;20034;-73
2022/09/08 01:47:10;;;;;;;6.50;4.45;;;;;;;24.43;50.09;100946.22;4997791;28;20495;-73
2022/09/08 01:49:36;;;;;;;6.82;5.00;;;;;;;24.37;50.13;100948.66;4999482;28;20416;-73
2022/09/08 01:52:02;;;;;;;5.18;4.20;;;;;;;24.40;49.96;100953.56;4987316;28;20041;-73
2022/09/08 01:54:27;;;;;;;6.95;4.65;;;;;;;24.40;50.08;100950.09;5000196;28;20567;-73
2022/09/08 01:56:55;;;;;;;11.23;5.65;;;;;;;24.41;50.09;100949.06;4996881;28;20029;-75
2022/09/08 01:59:21;;;;;;;6.60;4.72;;;;;;;24.36;50.06;100940.88;4998342;28;20042;-74
2022/09/08 02:01:46;;;;;;;7.13;4.82;;;;;;;24.39;50.13;100945.78;4997932;28;20046;-74
2022/09/08 02:04:12;;;;;;;11.85;4.97;;;;;;;24.35;50.01;100937.41;5002963;28;20431;-73
2022/09/08 02:06:38;;;;;;;5.45;4.55;;;;;;;24.39;49.90;100940.47;4999511;28;20038;-74
2022/09/08 02:09:04;;;;;;;5.65;4.93;;;;;;;24.32;50.08;100937.81;4968565;28;20104;-74
2022/09/08 02:11:30;;;;;;;6.15;4.75;;;;;;;24.38;50.09;100944.16;4997907;28;20053;-73
2022/09/08 02:13:56;;;;;;;6.47;4.93;;;;;;;24.31;50.09;100924.72;5000026;28;20026;-73
2022/09/08 02:16:21;;;;;;;9.85;5.88;;;;;;;24.39;50.13;100935.97;4997914;28;20464;-73
2022/09/08 02:18:47;;;;;;;6.70;5.22;;;;;;;24.37;50.17;100937.19;5002672;28;20512;-73
2022/09/08 02:21:17;;;;;;;6.35;5.13;;;;;;;24.35;49.84;100932.09;4984180;28;20907;-73
2022/09/08 02:23:46;;;;;;;9.60;6.18;;;;;;;24.34;49.97;100924.31;4995212;28;20034;-73
2022/09/08 02:26:26;;;;;;;7.95;5.45;;;;;;;24.33;50.02;100922.69;4977711;28;21096;-73
2022/09/08 02:28:53;;;;;;;9.02;6.07;;;;;;;24.38;50.08;100929.00;5000383;28;20029;-73
2022/09/08 02:31:19;;;;;;;6.97;5.50;;;;;;;24.32;49.99;100913.06;4997292;28;20042;-73
2022/09/08 02:33:45;;;;;;;9.02;5.85;;;;;;;24.38;49.94;100922.88;4998187;28;20052;-75
2022/09/08 02:36:10;;;;;;;9.38;5.97;;;;;;;24.36;49.89;100915.09;4999584;28;20850;-75
2022/09/08 02:38:36;;;;;;;5.75;4.70;;;;;;;24.37;49.95;100918.56;5000553;28;20050;-75
2022/09/08 02:41:02;;;;;;;9.05;6.40;;;;;;;24.35;49.82;100915.31;4995067;28;20040;-75
2022/09/08 02:43:29;;;;;;;7.20;5.60;;;;;;;24.37;50.06;100907.94;4981931;28;20065;-75
2022/09/08 02:45:54;;;;;;;8.75;6.45;;;;;;;24.31;49.82;100898.13;4998152;28;20491;-75
2022/09/08 02:48:20;;;;;;;8.35;5.72;;;;;;;24.36;50.00;100915.09;4998479;28;20065;-75
2022/09/08 02:50:46;;;;;;;10.73;6.40;;;;;;;24.36;49.85;100916.94;4980128;28;20049;-75
2022/09/08 02:53:11;;;;;;;7.70;5.70;;;;;;;24.37;49.95;100913.25;4996840;28;20052;-75
2022/09/08 02:55:41;;;;;;;8.20;6.45;;;;;;;24.33;50.09;100901.38;4995419;28;20725;-75
2022/09/08 02:58:08;;;;;;;8.70;6.15;;;;;;;24.37;50.09;100911.41;4976177;28;20053;-75
2022/09/08 03:00:38;;;;;;;7.38;6.22;;;;;;;24.36;49.90;100906.28;4998738;28;20632;-75
2022/09/08 03:03:04;;;;;;;9.18;6.22;;;;;;;24.34;49.92;100901.19;4979115;28;20048;-75
2022/09/08 03:05:30;;;;;;;10.90;6.70;;;;;;;24.37;49.96;100908.75;4997998;28;20061;-75
2022/09/08 03:07:57;;;;;;;11.90;6.63;;;;;;;24.37;49.99;100902.59;4980231;28;20041;-75
2022/09/08 03:10:23;;;;;;;7.55;6.65;;;;;;;24.35;49.89;100904.66;4999825;28;20053;-75
2022/09/08 03:12:53;;;;;;;10.45;6.82;;;;;;;24.34;49.80;100911.00;4996715;28;20042;-75
2022/09/08 03:15:21;;;;;;;11.35;7.75;;;;;;;24.34;49.89;100905.69;4993960;28;20493;-75
2022/09/08 03:17:47;;;;;;;8.35;6.80;;;;;;;24.34;50.20;100897.69;4997849;28;20037;-75
2022/09/08 03:20:13;;;;;;;8.73;6.78;;;;;;;24.33;49.83;100883.56;4999766;28;20038;-75
2022/09/08 03:22:38;;;;;;;11.13;7.05;;;;;;;24.35;49.99;100894.81;4998564;28;20129;-75
2022/09/08 03:25:05;;;;;;;10.43;7.03;;;;;;;24.29;50.02;100876.22;4996777;28;20400;-75
2022/09/08 03:27:31;;;;;;;11.45;7.47;;;;;;;24.33;50.05;100883.56;4996912;28;20832;-75
2022/09/08 03:29:56;;;;;;;9.68;6.93;;;;;;;24.33;49.98;100880.09;4997416;28;20027;-77
2022/09/08 03:32:22;;;;;;;10.55;7.72;;;;;;;24.32;49.94;100873.97;4997253;28;20488;-75
2022/09/08 03:34:48;;;;;;;9.00;7.15;;;;;;;24.31;49.89;100874.97;4998795;28;20077;-75
2022/09/08 03:37:13;;;;;;;10.10;7.70;;;;;;;24.20;49.95;100856.94;5003825;28;20416;-75
2022/09/08 03:39:39;;;;;;;9.73;7.32;;;;;;;24.32;50.14;100881.13;4985771;28;20034;-76
2022/09/08 03:42:08;;;;;;;9.25;7.10;;;;;;;24.29;49.80;100869.06;5002173;28;20064;-75
2022/09/08 03:44:33;;;;;;;8.97;7.23;;;;;;;24.31;50.14;100866.19;4998547;28;20034;-75
2022/09/08 03:46:59;;;;;;;10.45;7.47;;;;;;;24.31;49.99;100863.53;4984454;28;20515;-75
2022/09/08 03:49:25;;;;;;;10.10;7.75;;;;;;;24.31;50.03;100868.84;5001356;28;20037;-75
2022/09/08 03:51:51;;;;;;;10.15;7.70;;;;;;;24.30;49.95;100868.03;4997258;28;20577;-75
2022/09/08 03:57:01;;;;;;;11.65;8.10;;;;;;;24.20;50.01;100845.50;4999999;28;20049;-74
2022/09/08 03:59:27;;;;;;;8.35;7.22;;;;;;;24.30;49.65;100867.22;4969656;28;20045;-75
2022/09/08 04:01:53;;;;;;;12.65;7.47;;;;;;;24.29;50.01;100858.41;4995684;28;20045;-75
2022/09/08 04:04:21;;;;;;;9.88;7.60;;;;;;;24.28;49.95;100854.09;4998748;28;20037;-75
2022/09/08 04:06:47;;;;;;;10.73;7.07;;;;;;;24.28;50.09;100850.59;4999895;28;20046;-75
2022/09/08 04:09:12;;;;;;;11.15;7.85;;;;;;;24.27;49.99;100847.13;5002226;28;20049;-76
2022/09/08 04:11:38;;;;;;;12.10;7.88;;;;;;;24.29;50.03;100842.44;4997638;28;20069;-76
2022/09/08 04:14:03;;;;;;;9.65;7.68;;;;;;;24.28;50.12;100838.13;4999444;28;20044;-75
2022/09/08 04:16:29;;;;;;;11.13;8.35;;;;;;;24.23;50.12;100837.91;4989305;28;20042;-75
2022/09/08 04:18:55;;;;;;;13.18;8.45;;;;;;;24.27;49.98;100836.50;5003935;28;20452;-75
2022/09/08 04:21:21;;;;;;;10.10;7.55;;;;;;;24.26;50.03;100845.50;4998307;28;20099;-75
2022/09/08 04:23:46;;;;;;;9.68;7.40;;;;;;;24.27;50.14;100846.31;4983686;28;20074;-74
2022/09/08 04:26:13;;;;;;;10.40;7.70;;;;;;;24.22;50.10;100838.94;5001495;28;20064;-75
2022/09/08 04:28:39;;;;;;;11.13;8.23;;;;;;;24.22;50.10;100840.78;5003824;28;20164;-75
2022/09/08 04:31:07;;;;;;;8.50;7.50;;;;;;;24.25;50.10;100843.03;5002459;28;20052;-75
2022/09/08 04:33:33;;;;;;;10.40;7.82;;;;;;;24.19;50.17;100838.53;5001683;28;20088;-75
2022/09/08 04:36:05;;;;;;;9.82;7.85;;;;;;;24.23;50.06;100842.41;4999592;28;20041;-75
2022/09/08 04:38:30;;;;;;;9.13;7.43;;;;;;;24.14;50.15;100817.88;5002926;28;20053;-75
2022/09/08 04:41:02;;;;;;;11.27;8.02;;;;;;;24.24;50.14;100836.09;4997207;28;20041;-75
2022/09/08 04:43:28;;;;;;;11.85;8.27;;;;;;;24.24;50.13;100826.28;5005205;28;20076;-75
2022/09/08 04:45:53;;;;;;;12.88;8.00;;;;;;;24.22;50.08;100820.31;5000695;28;20034;-75
2022/09/08 04:48:19;;;;;;;10.02;8.07;;;;;;;24.21;50.11;100809.88;5000745;28;20046;-75
2022/09/08 04:50:51;;;;;;;11.73;8.55;;;;;;;24.23;49.96;100810.47;4998407;28;20522;-76
2022/09/08 04:53:17;;;;;;;9.52;8.07;;;;;;;24.24;49.98;100793.53;4999215;28;20124;-76
2022/09/08 04:55:42;;;;;;;9.50;7.88;;;;;;;24.22;50.22;100785.72;4967310;28;20844;-75
2022/09/08 04:58:08;;;;;;;11.50;8.35;;;;;;;24.22;50.10;100783.06;4998942;28;20041;-75
2022/09/08 05:00:33;;;;;;;12.02;8.48;;;;;;;24.11;49.76;100768.59;5002293;28;20503;-75
2022/09/08 05:02:59;;;;;;;11.60;8.48;;;;;;;24.23;49.92;100781.22;4981619;28;20052;-75
2022/09/08 05:05:24;;;;;;;12.25;8.27;;;;;;;24.22;50.16;100780.41;5001584;28;20034;-75
2022/09/08 05:07:50;;;;;;;11.65;8.77;;;;;;;24.23;49.96;100786.53;4999198;28;20049;-75
2022/09/08 05:10:16;;;;;;;10.45;7.68;;;;;;;24.19;50.08;100775.50;4998840;28;20057;-75
2022/09/08 05:12:41;;;;;;;11.43;8.77;;;;;;;24.14;49.97;100767.34;4999822;28;20126;-75
2022/09/08 05:15:07;;;;;;;11.65;8.77;;;;;;;24.21;50.17;100775.28;4967103;28;20420;-75
2022/09/08 05:17:33;;;;;;;9.65;8.30;;;;;;;24.21;50.16;100772.63;5000806;28;20042;-75
2022/09/08 05:19:58;;;;;;;9.65;8.05;;;;;;;24.22;50.12;100776.91;4998988;28;20046;-75
2022/09/08 05:22:24;;;;;;;12.50;9.55;;;;;;;24.22;50.16;100775.06;4999706;28;20147;-75
2022/09/08 05:24:50;;;;;;;10.95;8.02;;;;;;;24.17;50.07;100769.56;5002203;28;20418;-76
2022/09/08 05:27:15;;;;;;;12.05;8.00;;;;;;;24.19;49.88;100767.53;4996628;28;20579;-75
2022/09/08 05:29:41;;;;;;;12.05;8.88;;;;;;;24.21;50.10;100754.81;4981610;28;20057;-76
2022/09/08 05:32:06;;;;;;;10.25;8.02;;;;;;;24.20;49.94;100757.69;4999730;28;20054;-75
2022/09/08 05:34:32;;;;;;;10.68;8.93;;;;;;;24.21;50.11;100764.66;5001066;28;20414;-75
2022/09/08 05:36:57;;;;;;;11.95;8.82;;;;;;;24.21;50.13;100751.34;5001146;28;20057;-75
2022/09/08 05:39:23;;;;;;;10.90;8.63;;;;;;;24.20;50.05;100747.03;5000348;28;20050;-75
2022/09/08 05:41:48;;;;;;;11.40;8.88;;;;;;;24.21;50.07;100738.84;5000354;28;20377;-75
2022/09/08 05:44:14;;;;;;;11.10;8.48;;;;;;;24.21;50.14;100727.41;5002061;28;20751;-75
2022/09/08 05:46:40;;;;;;;11.55;8.80;;;;;;;24.20;49.88;100723.91;5001397;28;20057;-75
2022/09/08 05:49:05;;;;;;;10.35;7.88;;;;;;;24.20;49.95;100725.75;4998206;28;20060;-75
2022/09/08 05:51:32;;;;;;;11.02;8.50;;;;;;;24.12;50.20;100724.16;5000474;28;20038;-75
2022/09/08 05:53:59;;;;;;;9.77;8.32;;;;;;;24.20;50.14;100750.53;5001414;28;20754;-76
2022/09/08 05:56:24;;;;;;;9.52;7.68;;;;;;;24.17;50.06;100750.13;4981374;28;20400;-75
2022/09/08 05:58:52;;;;;;;10.07;8.30;;;;;;;24.20;50.18;100749.72;4996613;28;20050;-75
2022/09/08 06:01:18;;;;;;;13.25;8.52;;;;;;;24.19;50.12;100743.56;5000475;28;20034;-75
2022/09/08 06:03:43;;;;;;;11.20;8.07;;;;;;;24.15;50.14;100717.59;4996044;28;20488;-76
2022/09/08 06:06:11;;;;;;;11.07;8.50;;;;;;;24.19;50.18;100732.94;4979088;28;20107;-76
2022/09/08 06:08:38;;;;;;;10.68;8.70;;;;;;;24.19;49.99;100722.28;4997947;28;20030;-75
2022/09/08 06:11:04;;;;;;;10.02;8.13;;;;;;;24.18;50.10;100719.84;5000658;28;20046;-75
2022/09/08 06:13:31;;;;;;;11.05;8.95;;;;;;;24.19;49.93;100729.44;5001068;28;20052;-75
2022/09/08 06:16:06;;;;;;;11.15;8.57;;;;;;;24.19;50.22;100735.59;4993753;28;20038;-74
2022/09/08 06:18:37;;;;;;;13.43;8.48;;;;;;;24.20;49.99;100741.72;4999672;28;20052;-75
2022/09/08 06:21:11;;;;;;;9.60;7.78;;;;;;;24.18;50.10;100733.16;4981618;28;20087;-75
2022/09/08 06:23:37;;;;;;;10.07;8.27;;;;;;;24.18;50.01;100733.97;5000141;28;20030;-75
2022/09/08 06:26:14;;;;;;;10.60;8.40;;;;;;;24.18;50.21;100730.47;4994825;28;20800;-75
2022/09/08 06:29:23;;;;;;;10.38;8.93;;;;;;;24.19;50.13;100740.09;5001141;28;20224;-75
2022/09/08 06:31:55;;;;;;;10.48;8.48;;;;;;;24.18;50.00;100781.84;4997886;28;20048;-75
2022/09/08 06:34:27;;;;;;;10.25;8.13;;;;;;;24.14;50.06;100780.66;4992651;28;20050;-75
2022/09/08 06:37:00;;;;;;;10.63;8.60;;;;;;;24.14;50.25;100782.47;4992162;28;20539;-75
2022/09/08 06:39:31;;;;;;;9.40;7.32;;;;;;;24.16;50.11;100775.94;4997873;28;20042;-75
2022/09/08 06:42:04;;;;;;;13.00;8.80;;;;;;;24.16;50.04;100793.72;4980837;28;20029;-75
2022/09/08 06:44:35;;;;;;;12.52;8.88;;;;;;;24.16;50.06;100807.84;5000703;28;20044;-75
2022/09/08 06:47:01;;;;;;;10.40;8.05;;;;;;;24.15;50.21;100787.59;5002280;28;20037;-75
2022/09/08 06:49:27;;;;;;;11.30;8.95;;;;;;;24.15;49.98;100784.94;4999510;28;20030;-75
2022/09/08 06:52:24;;;;;;;16.95;9.57;;;;;;;24.17;50.14;100800.69;4996411;28;20031;-75
2022/09/08 06:54:56;;;;;;;13.82;8.43;;;;;;;24.16;50.19;100799.06;4995517;28;20030;-75
2022/09/08 06:57:37;;;;;;;10.57;8.65;;;;;;;24.15;50.14;100808.06;4998808;28;20045;-74
2022/09/08 07:00:10;;;;;;;10.10;7.97;;;;;;;24.15;50.22;100810.72;4995195;28;20034;-75
2022/09/08 07:02:38;;;;;;;13.15;9.52;;;;;;;24.16;50.10;100809.69;5000316;28;20365;-75
2022/09/08 07:05:28;;;;;;;12.20;9.10;;;;;;;24.14;50.15;100809.91;5001238;28;20037;-75
2022/09/08 07:08:06;;;;;;;10.20;8.48;;;;;;;24.14;50.08;100807.25;4999650;28;20026;-75
2022/09/08 07:10:45;;;;;;;11.40;8.80;;;;;;;24.13;50.16;100818.91;4995869;28;20049;-74
2022/09/08 07:13:28;;;;;;;10.23;7.90;;;;;;;24.13;50.19;100807.47;4999165;28;20042;-74
2022/09/08 07:16:13;;;;;;;10.52;9.00;;;;;;;24.14;50.29;100815.22;4999289;28;20040;-74
2022/09/08 07:18:56;;;;;;;10.30;9.05;;;;;;;24.13;50.07;100824.22;5000102;28;20601;-74
2022/09/08 07:21:24;;;;;;;11.73;8.57;;;;;;;24.13;50.14;100810.13;4999307;28;20069;-74
2022/09/08 07:23:51;;;;;;;9.95;8.40;;;;;;;24.08;50.29;100816.88;4996423;28;20042;-74
2022/09/08 07:26:25;;;;;;;11.27;8.52;;;;;;;24.13;50.27;100824.22;4996779;28;20180;-75
2022/09/08 07:28:54;;;;;;;9.35;8.10;;;;;;;24.14;50.07;100819.72;4998663;28;20472;-75
2022/09/08 07:31:22;;;;;;;11.00;8.55;;;;;;;24.07;50.15;100809.94;4997247;28;20065;-74
2022/09/08 07:34:15;;;;;;;9.68;8.68;;;;;;;24.11;50.25;100799.69;4997868;28;20026;-74
2022/09/08 07:37:11;;;;;;;10.95;8.77;;;;;;;24.05;50.05;100796.00;4996875;28;20045;-74
2022/09/08 07:39:42;;;;;;;10.27;8.95;;;;;;;24.10;50.38;100798.88;4998028;28;20038;-74
2022/09/08 07:42:14;;;;;;;10.18;8.60;;;;;;;24.11;50.36;100797.03;4995369;28;20045;-75
2022/09/08 07:44:40;;;;;;;10.65;8.45;;;;;;;24.12;50.39;100806.63;4997813;28;20038;-74
2022/09/08 07:47:16;;;;;;;9.85;8.40;;;;;;;24.13;50.28;100796.81;4994862;28;20381;-74
2022/09/08 07:50:20;;;;;;;11.32;8.75;;;;;;;24.07;50.28;100801.94;4998172;28;20049;-75
2022/09/08 07:52:54;;;;;;;10.20;9.10;;;;;;;24.10;50.32;100806.84;4936601;28;20043;-75
2022/09/08 07:55:38;;;;;;;11.30;8.15;;;;;;;24.09;50.46;100799.91;4984157;28;20505;-74
2022/09/08 07:58:27;;;;;;;10.15;8.27;;;;;;;24.10;50.42;100804.19;4999041;28;20044;-74
2022/09/08 08:01:06;;;;;;;12.10;9.27;;;;;;;24.10;50.25;100803.38;4996757;28;20038;-75
2022/09/08 08:03:44;;;;;;;11.75;8.85;;;;;;;24.10;50.37;100808.69;4986269;28;20509;-75
2022/09/08 08:06:28;;;;;;;11.27;8.30;;;;;;;24.09;50.59;100801.75;5001671;28;20038;-76
2022/09/08 08:09:08;;;;;;;10.68;8.77;;;;;;;24.05;50.36;100797.84;4999860;28;20033;-75
2022/09/08 08:11:56;;;;;;;12.82;8.75;;;;;;;24.07;50.54;100788.66;4991963;28;20041;-75
2022/09/08 08:14:22;;;;;;;9.25;7.65;;;;;;;24.08;50.40;100792.13;4983231;28;20081;-75
2022/09/08 08:17:09;;;;;;;11.40;8.77;;;;;;;24.03;50.37;100781.28;4998915;28;20052;-76
2022/09/08 08:20:00;;;;;;;10.95;8.48;;;;;;;24.06;50.41;100787.03;5004891;28;20037;-75
2022/09/08 08:22:50;;;;;;;10.75;8.57;;;;;;;24.07;50.43;100788.66;5002005;28;20092;-74
2022/09/08 08:25:15;;;;;;;9.77;8.50;;;;;;;24.08;50.56;100792.13;4993497;28;20057;-74
2022/09/08 08:27:59;;;;;;;11.40;8.82;;;;;;;24.08;50.41;100794.78;5003800;28;20041;-74
2022/09/08 08:30:26;;;;;;;11.07;8.32;;;;;;;24.08;50.40;100794.78;4976366;28;20045;-74
2022/09/08 08:33:13;;;;;;;8.98;8.07;;;;;;;24.04;50.35;100774.94;4999396;28;20065;-74
2022/09/08 08:35:48;;;;;;;19.38;13.50;;;;;;;24.11;51.49;100784.53;4998979;28;20341;-76
2022/09/08 08:38:19;;;;;;;23.38;13.50;;;;;;;23.97;51.54;100759.00;4998657;28;20041;-76
2022/09/08 08:40:59;;;;;;;17.63;11.98;;;;;;;24.15;51.51;100794.75;5000301;28;20116;-76
2022/09/08 08:43:24;;;;;;;;;;;;;;;24.12;51.26;100785.34;4998685;28;20778;-76
2022/09/08 08:46:11;;;;;;;16.45;12.02;;;;;;;24.11;51.45;100786.38;4997635;28;19971;-77
2022/09/08 08:49:16;;;;;;;18.83;11.65;;;;;;;24.08;51.59;100776.97;4990933;28;20165;-77
2022/09/08 08:52:09;;;;;;;14.95;11.45;;;;;;;24.09;51.61;100773.28;4996229;28;20050;-76
2022/09/08 08:54:45;;;;;;;18.65;12.25;;;;;;;24.16;51.53;100778.59;4945480;28;20084;-74
2022/09/08 08:57:20;;;;;;;16.20;11.07;;;;;;;24.29;51.08;100767.13;4996238;28;20049;-75
2022/09/08 09:00:00;;;;;;;20.27;12.90;;;;;;;24.35;51.14;100772.41;5002413;28;20042;-74
2022/09/08 09:02:50;;;;;;;17.30;11.77;;;;;;;24.43;50.96;100759.91;5002620;28;20041;-71
2022/09/08 09:05:18;;;;;;;20.42;12.55;;;;;;;24.49;50.85;100765.19;5000519;28;20053;-77
2022/09/08 09:07:53;;;;;;;18.80;11.35;;;;;;;24.51;51.07;100771.13;5003142;28;20773;-72
2022/09/08 09:10:55;;;;;;;20.02;13.20;;;;;;;24.57;50.85;100777.44;4981508;28;20034;-74
2022/09/08 09:13:36;;;;;;;18.25;11.65;;;;;;;24.60;50.60;100779.69;5005499;28;20033;-75
2022/09/08 09:16:33;;;;;;;20.15;12.75;;;;;;;24.60;50.60;100780.50;5005126;28;20411;-74
2022/09/08 09:18:59;;;;;;;17.33;11.98;;;;;;;24.59;50.67;100789.50;5001702;28;20689;-74
2022/09/08 09:21:30;;;;;;;15.82;11.77;;;;;;;24.53;50.78;100802.84;5001188;28;20706;-73
2022/09/08 09:24:09;;;;;;;13.13;10.23;;;;;;;24.49;51.38;100804.31;4998207;28;20029;-72
2022/09/08 09:26:35;;;;;;;14.05;10.20;;;;;;;24.61;50.75;100811.41;4972753;28;20495;-74
2022/09/08 09:29:18;;;;;;;16.17;10.57;;;;;;;24.62;50.25;100801.59;4996757;28;20062;-69
2022/09/08 09:32:04;;;;;;;13.40;9.95;;;;;;;24.67;50.02;100791.94;4981417;28;20628;-70
2022/09/08 09:34:42;;;;;;;13.27;9.48;;;;;;;24.69;49.86;100783.72;5000327;28;20038;-67
2022/09/08 09:37:38;;;;;;;12.13;9.48;;;;;;;24.69;49.67;100784.53;4999986;28;20045;-72
2022/09/08 09:40:32;;;;;;;14.57;10.13;;;;;;;24.69;49.88;100778.41;5000133;28;20072;-68
2022/09/08 09:43:20;;;;;;;12.77;9.45;;;;;;;24.65;50.04;100785.19;4990959;28;20599;-68
2022/09/08 09:45:52;;;;;;;12.15;8.68;;;;;;;24.63;50.92;100774.75;4998657;28;20056;-71
2022/09/08 09:48:45;;;;;;;13.48;9.95;;;;;;;24.70;50.49;100756.88;5002852;28;20550;-72
2022/09/08 09:51:19;;;;;;;14.98;10.50;;;;;;;24.75;50.50;100768.72;4984812;28;20143;-72
2022/09/08 09:54:37;;;;;;;15.30;10.00;;;;;;;24.79;49.97;100764.63;4996060;28;20046;-72
2022/09/08 09:57:30;;;;;;;11.98;9.68;;;;;;;24.68;50.34;100761.59;4954072;28;20050;-72
2022/09/08 10:00:12;;;;;;;13.38;9.05;;;;;;;24.59;50.67;100762.06;4974802;28;20481;-71
2022/09/08 10:03:30;;;;;;;16.52;9.18;;;;;;;24.63;51.07;100780.06;4982817;28;20124;-68
2022/09/08 10:06:17;;;;;;;13.82;8.52;;;;;;;24.60;50.25;100779.69;4996560;28;20037;-76
2022/09/08 10:09:04;;;;;;;13.65;8.43;;;;;;;24.61;50.94;100794.63;4999042;28;20476;-76
2022/09/08 10:12:12;;;;;;;13.02;7.75;;;;;;;24.62;50.53;100794.41;4984745;28;20152;-75
2022/09/08 10:15:16;;;;;;;12.48;8.05;;;;;;;24.61;50.53;100795.44;4987444;28;20467;-74
2022/09/08 10:18:18;;;;;;;12.63;7.70;;;;;;;24.62;50.45;100797.06;4993657;28;20042;-73
2022/09/08 10:21:12;;;;;;;8.63;7.10;;;;;;;24.58;50.33;100795.84;4983726;28;20034;-75
2022/09/08 10:24:31;;;;;;;10.48;7.43;;;;;;;24.63;50.14;100812.03;4999179;28;20259;-75
2022/09/08 10:27:35;;;;;;;10.52;7.00;;;;;;;24.63;50.37;100820.00;4990319;28;20163;-75
2022/09/08 10:30:30;;;;;;;10.10;6.68;;;;;;;24.61;50.12;100816.75;4994607;28;21841;-75
2022/09/08 10:33:33;;;;;;;9.95;7.22;;;;;;;24.58;50.53;100819.81;4966952;28;20567;-75
2022/09/08 10:36:06;;;;;;;8.82;6.30;;;;;;;24.61;50.60;100826.59;4994793;28;20069;-74
2022/09/08 10:38:44;;;;;;;9.15;6.50;;;;;;;24.61;50.10;100827.41;4994760;28;20108;-72
2022/09/08 10:41:47;;;;;;;8.32;6.13;;;;;;;24.61;49.73;100835.38;4996655;28;20057;-72
2022/09/08 10:44:34;;;;;;;8.90;6.03;;;;;;;24.61;50.34;100830.06;4990727;28;21343;-72
2022/09/08 10:47:02;;;;;;;8.02;5.85;;;;;;;24.63;50.14;100837.84;4993879;28;20037;-74
2022/09/08 10:50:08;;;;;;;8.20;5.28;;;;;;;24.58;49.84;100830.47;4957393;28;20063;-74
2022/09/08 10:53:03;;;;;;;6.90;5.55;;;;;;;24.61;49.94;100839.91;4992893;28;20041;-72
2022/09/08 10:55:46;;;;;;;6.30;5.30;;;;;;;24.62;49.92;100842.34;4961257;28;20511;-72
2022/09/08 10:58:34;;;;;;;7.30;5.85;;;;;;;24.63;49.64;100840.50;4992947;28;20029;-74
2022/09/08 11:01:30;;;;;;;7.30;5.07;;;;;;;24.62;49.53;100844.19;4995109;28;20647;-74
2022/09/08 11:04:30;;;;;;;6.32;5.15;;;;;;;24.62;49.77;100849.50;4997178;28;20523;-75
2022/09/08 11:07:20;;;;;;;8.65;5.32;;;;;;;24.63;49.52;100848.47;4980844;28;20550;-75
2022/09/08 11:10:01;;;;;;;7.65;5.75;;;;;;;24.59;49.95;100845.41;4994556;28;20396;-75
2022/09/08 11:12:58;;;;;;;6.57;5.22;;;;;;;24.64;49.64;100852.78;4991428;28;20455;-73
2022/09/08 11:15:47;;;;;;;7.95;4.80;;;;;;;24.62;49.85;100855.66;4992718;28;20053;-72
2022/09/08 11:18:36;;;;;;;5.72;4.75;;;;;;;24.62;49.53;100854.84;4990035;28;20045;-72
2022/09/08 11:21:27;;;;;;;6.20;4.80;;;;;;;24.62;49.63;100857.50;4987066;28;20046;-71
2022/09/08 11:24:11;;;;;;;5.78;3.90;;;;;;;24.62;50.29;100853.00;4994254;28;20042;-73
2022/09/08 11:26:44;;;;;;;7.43;4.47;;;;;;;24.65;50.48;100857.88;4992977;28;20148;-76
2022/09/08 11:29:14;;;;;;;6.63;4.70;;;;;;;24.63;50.70;100862.63;4976444;28;20042;-75
2022/09/08 11:31:57;;;;;;;9.80;4.72;;;;;;;24.60;50.22;100863.03;4988727;28;20578;-73
2022/09/08 11:34:31;;;;;;;7.10;4.40;;;;;;;24.60;50.22;100862.22;4992460;28;20460;-78
2022/09/08 11:37:12;;;;;;;6.57;4.25;;;;;;;24.59;50.41;100864.03;4994105;28;20056;-78
2022/09/08 11:39:49;;;;;;;7.22;4.05;;;;;;;24.59;50.59;100868.53;5002298;28;20046;-75
2022/09/08 11:43:10;;;;;;;6.68;4.20;;;;;;;24.52;50.71;100857.94;5001910;28;20048;-75
2022/09/08 11:46:11;;;;;;;6.07;4.05;;;;;;;24.58;50.83;100861.59;5001304;28;20277;-74
2022/09/08 11:49:18;;;;;;;6.40;4.47;;;;;;;24.57;49.82;100863.44;5001631;28;20053;-74
2022/09/08 11:52:02;;;;;;;5.57;4.15;;;;;;;24.58;50.11;100869.56;4990864;28;20045;-73
2022/09/08 11:54:39;;;;;;;8.93;4.35;;;;;;;24.59;50.39;100864.03;4973577;28;20043;-73
2022/09/08 11:57:21;;;;;;;5.63;3.72;;;;;;;24.58;50.03;100865.06;4999238;28;20065;-73
2022/09/08 11:59:52;;;;;;;5.57;4.05;;;;;;;24.58;50.18;100869.56;5002981;28;20145;-73
2022/09/08 12:02:55;;;;;;;5.55;3.70;;;;;;;24.59;50.05;100865.88;5006568;28;20700;-73
2022/09/08 12:05:32;;;;;;;4.82;3.75;;;;;;;24.58;49.90;100859.75;5005330;28;20030;-73